New Haven, Connecticut
Current Conditions -  °F | °C
As of 7:53 PM on Tuesday 21 Oct 2014 (Local Time) from KHVN Reporting Station
Moderate Rain Moderate Rain  
Wind Chill: 14°   Ceiling: 6000
Heat Index: 14°   Visibility: 6mi
Dew Point: 12°   Wind: 6mph
Humidity: 87%   Direction: 350°N
Pressure: 29.89"   Gusts: NA
Location:  41.31°N, 72.92°W
Report Text: KHVN 212353Z 35005KT 6SM RA BR BKN060 OVC075 14/12 A2989 RMK AO2 RAB16 SLP121 P0016 60018 T01440122 10200 20139 53010
Loading
Personal Weather Stations






























Interactive Weather Map
Tropical Storm Tracking
New forecast layout! Learn more

10-Day Weather Forecast

Advertisements
Track Severe Weather on mobile